createdAt,value
2022-11-24T00:01:28.630Z,7.07
2022-11-24T00:04:02.207Z,12.93
2022-11-24T00:06:31.560Z,12.60
2022-11-24T00:08:59.508Z,6.72
2022-11-24T00:11:32.798Z,13.25
2022-11-24T00:14:01.929Z,5.10
2022-11-24T00:16:32.594Z,19.00
2022-11-24T00:19:02.324Z,19.08
2022-11-24T00:21:31.897Z,9.73
2022-11-24T00:23:59.564Z,9.07
2022-11-24T00:26:30.642Z,7.35
2022-11-24T00:29:01.226Z,17.40
2022-11-24T00:31:36.591Z,7.30
2022-11-24T00:34:09.792Z,7.57
2022-11-24T00:36:37.719Z,21.02
2022-11-24T00:39:14.348Z,16.63
2022-11-24T00:41:42.546Z,10.07
2022-11-24T00:44:09.750Z,19.80
2022-11-24T00:46:37.563Z,10.73
2022-11-24T00:49:05.532Z,7.80
2022-11-24T00:51:33.153Z,9.43
2022-11-24T00:54:01.334Z,7.60
2022-11-24T00:56:29.979Z,12.15
2022-11-24T00:58:57.805Z,12.05
2022-11-24T01:01:28.360Z,9.50
2022-11-24T01:03:56.494Z,4.90
2022-11-24T01:06:26.543Z,9.40
2022-11-24T01:08:54.146Z,11.38
2022-11-24T01:11:54.172Z,11.40
2022-11-24T01:14:25.748Z,5.88
2022-11-24T01:16:56.192Z,13.38
2022-11-24T01:19:24.294Z,13.63
2022-11-24T01:21:52.254Z,9.05
2022-11-24T01:24:19.750Z,15.25
2022-11-24T01:26:47.289Z,7.00
2022-11-24T01:29:15.524Z,9.68
2022-11-24T01:31:45.013Z,9.93
2022-11-24T01:34:13.299Z,4.78
2022-11-24T01:36:40.799Z,6.47
2022-11-24T01:39:08.322Z,7.22
2022-11-24T01:41:35.786Z,14.52
2022-11-24T01:44:29.013Z,10.32
2022-11-24T01:47:03.005Z,9.27
2022-11-24T01:49:45.411Z,6.57
2022-11-24T01:52:18.950Z,6.88
2022-11-24T01:54:52.907Z,3.10
2022-11-24T01:57:31.300Z,16.17
2022-11-24T02:00:06.801Z,5.68
2022-11-24T02:02:42.539Z,6.88
2022-11-24T02:05:20.252Z,12.23
2022-11-24T02:07:48.796Z,9.80
2022-11-24T02:10:19.287Z,15.63
2022-11-24T02:12:49.088Z,13.00
2022-11-24T02:15:18.366Z,9.98
2022-11-24T02:17:45.509Z,3.47
2022-11-24T02:20:17.930Z,4.45
2022-11-24T02:23:22.269Z,6.65
2022-11-24T02:26:08.401Z,14.18
2022-11-24T02:28:35.782Z,10.43
2022-11-24T02:31:03.414Z,5.28
2022-11-24T02:33:31.402Z,7.18
2022-11-24T02:35:58.958Z,14.57
2022-11-24T02:38:35.236Z,5.22
2022-11-24T02:41:14.044Z,5.13
2022-11-24T02:43:51.731Z,6.80
2022-11-24T02:46:19.106Z,9.27
2022-11-24T02:48:47.903Z,3.30
2022-11-24T02:51:15.301Z,7.57
2022-11-24T02:53:42.662Z,5.00
2022-11-24T02:56:10.059Z,15.23
2022-11-24T02:58:37.452Z,5.30
2022-11-24T03:01:05.302Z,6.45
2022-11-24T03:03:35.471Z,9.25
2022-11-24T03:06:02.855Z,7.53
2022-11-24T03:08:30.284Z,9.25
2022-11-24T03:10:57.642Z,5.20
2022-11-24T03:13:25.055Z,9.02
2022-11-24T03:15:52.454Z,9.43
2022-11-24T03:18:19.896Z,8.65
2022-11-24T03:20:47.348Z,2.05
2022-11-24T03:23:14.995Z,4.05
2022-11-24T03:25:42.326Z,5.97
2022-11-24T03:28:10.127Z,5.53
2022-11-24T03:30:37.476Z,8.70
2022-11-24T03:33:05.036Z,4.18
2022-11-24T03:35:32.499Z,11.05
2022-11-24T03:37:59.869Z,10.48
2022-11-24T03:40:27.263Z,3.85
2022-11-24T03:42:54.581Z,5.65
2022-11-24T03:45:44.934Z,9.90
2022-11-24T03:48:10.757Z,1.45
2022-11-24T03:50:38.114Z,7.72
2022-11-24T03:53:05.478Z,4.18
2022-11-24T03:55:32.818Z,2.80
2022-11-24T03:58:02.989Z,5.82
2022-11-24T04:00:30.473Z,2.85
2022-11-24T04:02:57.905Z,8.82
2022-11-24T04:05:25.313Z,4.93
2022-11-24T04:07:57.267Z,6.95
2022-11-24T04:10:25.193Z,5.03
2022-11-24T04:12:52.126Z,3.22
2022-11-24T04:15:20.698Z,2.50
2022-11-24T04:17:49.800Z,6.25
2022-11-24T04:20:17.635Z,4.45
2022-11-24T04:22:45.030Z,2.28
2022-11-24T04:25:12.546Z,1.30
2022-11-24T04:27:39.775Z,4.53
2022-11-24T04:30:07.929Z,6.20
2022-11-24T04:32:35.507Z,2.58
2022-11-24T04:35:04.053Z,5.45
2022-11-24T04:37:31.606Z,6.30
2022-11-24T04:39:59.176Z,2.20
2022-11-24T04:42:26.176Z,5.47
2022-11-24T04:44:53.622Z,5.90
2022-11-24T04:47:23.677Z,12.07
2022-11-24T04:49:51.620Z,4.43
2022-11-24T04:52:21.446Z,5.13
2022-11-24T04:54:49.401Z,6.88
2022-11-24T04:57:17.417Z,5.28
2022-11-24T04:59:44.430Z,6.28
2022-11-24T05:02:12.459Z,8.18
2022-11-24T05:04:40.192Z,8.10
2022-11-24T05:07:07.721Z,6.50
2022-11-24T05:09:59.433Z,5.32
2022-11-24T05:12:31.133Z,5.13
2022-11-24T05:14:59.509Z,7.13
2022-11-24T05:17:31.413Z,2.10
2022-11-24T05:19:58.862Z,4.00
2022-11-24T05:22:27.698Z,9.27
2022-11-24T05:24:55.013Z,4.53
2022-11-24T05:27:22.485Z,7.38
2022-11-24T05:29:49.415Z,2.45
2022-11-24T05:32:16.736Z,8.07
2022-11-24T05:34:46.275Z,7.72
2022-11-24T05:37:13.554Z,7.68
2022-11-24T05:39:40.899Z,9.50
2022-11-24T05:42:26.914Z,2.08
2022-11-24T05:44:54.594Z,6.65
2022-11-24T05:47:22.072Z,2.13
2022-11-24T05:49:49.465Z,6.57
2022-11-24T05:52:17.224Z,10.95
2022-11-24T05:54:44.179Z,11.63
2022-11-24T05:57:11.483Z,3.63
2022-11-24T05:59:38.847Z,17.13
2022-11-24T06:02:06.438Z,3.67
2022-11-24T06:04:37.184Z,8.32
2022-11-24T06:07:06.738Z,7.68
2022-11-24T06:09:37.825Z,7.45
2022-11-24T06:12:09.583Z,2.95
2022-11-24T06:14:37.293Z,2.47
2022-11-24T06:17:06.279Z,3.10
2022-11-24T06:19:35.498Z,7.65
2022-11-24T06:22:05.961Z,7.57
2022-11-24T06:24:33.557Z,9.70
2022-11-24T06:27:01.156Z,4.65
2022-11-24T06:29:28.465Z,6.18
2022-11-24T06:31:55.799Z,6.30
2022-11-24T06:34:23.179Z,2.38
2022-11-24T06:36:50.065Z,7.63
2022-11-24T06:39:17.030Z,6.60
2022-11-24T06:41:44.404Z,1.85
2022-11-24T06:44:11.747Z,5.80
2022-11-24T06:46:39.073Z,13.88
2022-11-24T06:49:06.377Z,5.57
2022-11-24T06:51:33.738Z,16.08
2022-11-24T06:54:00.712Z,6.15
2022-11-24T06:56:28.295Z,11.07
2022-11-24T06:58:55.722Z,14.18
2022-11-24T07:01:28.745Z,7.63
2022-11-24T07:03:56.895Z,7.63
2022-11-24T07:06:26.104Z,11.70
2022-11-24T07:08:53.553Z,17.45
2022-11-24T07:11:25.118Z,7.07
2022-11-24T07:13:58.141Z,1.50
2022-11-24T07:16:27.756Z,4.05
2022-11-24T07:18:56.107Z,6.97
2022-11-24T07:21:24.923Z,4.75
2022-11-24T07:23:54.352Z,4.55
2022-11-24T07:26:23.195Z,6.13
2022-11-24T07:28:50.751Z,3.53
2022-11-24T07:31:21.450Z,8.20
2022-11-24T07:33:53.522Z,4.25
2022-11-24T07:36:21.368Z,8.48
2022-11-24T07:38:49.288Z,3.80
2022-11-24T07:41:19.460Z,7.57
2022-11-24T07:43:47.769Z,7.38
2022-11-24T07:46:18.075Z,5.47
2022-11-24T07:48:46.290Z,7.80
2022-11-24T07:51:14.066Z,19.00
2022-11-24T07:53:41.474Z,12.30
2022-11-24T07:56:10.078Z,6.47
2022-11-24T07:58:38.086Z,7.70
2022-11-24T08:01:14.962Z,14.55
2022-11-24T08:03:42.835Z,4.85
2022-11-24T08:06:30.506Z,4.25
2022-11-24T08:09:00.472Z,11.85
2022-11-24T08:11:28.372Z,8.23
2022-11-24T08:13:55.516Z,7.97
2022-11-24T08:16:23.357Z,4.75
2022-11-24T08:18:53.408Z,9.50
2022-11-24T08:21:23.119Z,8.23
2022-11-24T08:23:53.921Z,9.70
2022-11-24T08:26:21.392Z,13.23
2022-11-24T08:28:53.656Z,8.20
2022-11-24T08:33:48.853Z,5.72
2022-11-24T08:36:19.136Z,10.95
2022-11-24T08:38:48.173Z,10.52
2022-11-24T08:41:17.875Z,6.63
2022-11-24T08:43:45.495Z,7.53
2022-11-24T08:46:17.271Z,9.05
2022-11-24T08:48:54.475Z,2.08
2022-11-24T08:51:26.242Z,8.30
2022-11-24T08:53:58.770Z,7.25
2022-11-24T08:58:54.974Z,3.40
2022-11-24T09:01:22.689Z,4.60
2022-11-24T09:03:51.601Z,4.68
2022-11-24T09:06:25.193Z,4.13
2022-11-24T09:08:54.511Z,5.40
2022-11-24T09:11:22.490Z,6.00
2022-11-24T09:13:49.829Z,5.95
2022-11-24T09:16:26.155Z,6.10
2022-11-24T09:19:03.130Z,5.07
2022-11-24T09:21:31.556Z,4.28
2022-11-24T09:23:58.591Z,3.17
2022-11-24T09:26:29.301Z,1.92
2022-11-24T09:28:57.880Z,1.33
2022-11-24T09:31:28.645Z,1.50
2022-11-24T09:33:56.787Z,4.80
2022-11-24T09:36:24.751Z,1.50
2022-11-24T09:38:52.573Z,3.28
2022-11-24T09:41:41.406Z,8.68
2022-11-24T09:44:39.741Z,3.67
2022-11-24T09:48:03.965Z,6.47
2022-11-24T09:50:37.394Z,11.75
2022-11-24T09:53:25.810Z,10.30
2022-11-24T09:56:02.322Z,7.38
2022-11-24T09:58:48.632Z,7.13
2022-11-24T10:01:27.915Z,2.60
2022-11-24T10:03:56.947Z,9.57
2022-11-24T10:06:31.528Z,16.83
2022-11-24T10:09:40.908Z,7.50
2022-11-24T10:12:34.936Z,19.75
2022-11-24T10:15:31.647Z,29.98
2022-11-24T10:18:30.369Z,10.20
2022-11-24T10:21:41.975Z,21.90
2022-11-24T10:24:55.346Z,5.95
2022-11-24T10:27:57.172Z,13.88
2022-11-24T10:30:24.191Z,25.75
2022-11-24T10:33:15.726Z,9.55
2022-11-24T10:35:55.744Z,1.05
2022-11-24T10:38:52.961Z,21.23
2022-11-24T10:41:58.137Z,39.25
2022-11-24T10:44:25.714Z,22.92
2022-11-24T10:46:52.730Z,8.57
2022-11-24T10:49:33.377Z,2.38
2022-11-24T10:52:18.731Z,4.03
2022-11-24T10:55:01.682Z,10.88
2022-11-24T10:57:40.830Z,5.20
2022-11-24T11:00:20.134Z,5.70
2022-11-24T11:02:49.633Z,5.57
2022-11-24T11:05:31.906Z,3.55
2022-11-24T11:08:14.178Z,1.05
2022-11-24T11:10:46.189Z,1.55
2022-11-24T11:13:29.407Z,0.45
2022-11-24T11:15:58.799Z,0.93
2022-11-24T11:18:33.487Z,10.20
2022-11-24T11:21:02.449Z,1.67
2022-11-24T11:23:33.902Z,2.80
2022-11-24T11:26:25.213Z,3.03
2022-11-24T11:35:05.734Z,1.15
2022-11-24T11:37:33.721Z,0.50
2022-11-24T11:40:01.522Z,0.50
2022-11-24T11:43:04.086Z,1.25
2022-11-24T11:48:42.375Z,2.65
2022-11-24T11:51:43.647Z,1.10
2022-11-24T11:54:27.179Z,3.88
2022-11-24T11:57:16.296Z,4.05
2022-11-24T12:00:02.100Z,6.95
2022-11-24T12:02:56.147Z,2.05
2022-11-24T12:05:46.123Z,0.50
2022-11-24T12:08:31.327Z,0.82
2022-11-24T12:11:16.121Z,4.20
2022-11-24T12:14:27.307Z,1.13
2022-11-24T12:17:36.501Z,1.33
2022-11-24T12:20:39.865Z,4.38
2022-11-24T12:23:53.346Z,4.03
2022-11-24T12:26:49.402Z,1.83
2022-11-24T12:29:43.264Z,2.15
2022-11-24T12:33:00.244Z,1.42
2022-11-24T12:35:49.143Z,7.63
2022-11-24T12:38:45.130Z,3.22
2022-11-24T12:41:43.766Z,5.47
2022-11-24T12:45:13.434Z,2.10
2022-11-24T12:48:03.734Z,3.58
2022-11-24T12:50:37.279Z,2.63
2022-11-24T12:53:28.059Z,0.47
2022-11-24T12:56:12.419Z,2.13
2022-11-24T12:58:45.716Z,2.72
2022-11-24T13:01:31.726Z,4.72
2022-11-24T13:04:38.195Z,6.18
2022-11-24T13:07:16.543Z,5.55
2022-11-24T13:10:54.010Z,8.30
2022-11-24T13:13:15.990Z,7.70
2022-11-24T13:16:34.434Z,7.97
2022-11-24T13:18:59.140Z,8.85
2022-11-24T13:21:47.101Z,7.68
2022-11-24T13:24:18.249Z,5.15
2022-11-24T13:26:49.450Z,2.10
2022-11-24T13:29:28.758Z,12.80
2022-11-24T13:32:19.075Z,9.65
2022-11-24T13:34:46.933Z,4.53
2022-11-24T13:37:31.785Z,4.47
2022-11-24T13:40:22.852Z,3.55
2022-11-24T13:43:10.088Z,1.67
2022-11-24T13:45:40.489Z,3.55
2022-11-24T13:48:20.369Z,6.00
2022-11-24T13:50:50.876Z,8.35
2022-11-24T13:53:40.874Z,6.25
2022-11-24T13:56:23.652Z,6.43
2022-11-24T13:59:15.373Z,2.30
2022-11-24T14:01:44.563Z,6.47
2022-11-24T14:04:31.043Z,5.10
2022-11-24T14:07:13.569Z,7.15
2022-11-24T14:09:47.631Z,11.53
2022-11-24T14:12:20.930Z,5.93
2022-11-24T14:14:51.193Z,13.90
2022-11-24T14:17:25.462Z,6.15
2022-11-24T14:19:57.855Z,8.70
2022-11-24T14:22:42.969Z,8.10
2022-11-24T14:25:35.126Z,6.25
2022-11-24T14:28:02.257Z,4.32
2022-11-24T14:30:29.796Z,4.60
2022-11-24T14:33:01.737Z,5.18
2022-11-24T14:35:31.999Z,11.70
2022-11-24T14:38:02.277Z,7.75
2022-11-24T14:40:47.257Z,5.07
2022-11-24T14:43:40.436Z,7.30
2022-11-24T14:46:18.372Z,6.30
2022-11-24T14:48:51.755Z,4.88
2022-11-24T14:51:22.394Z,10.15
2022-11-24T14:53:56.602Z,3.67
2022-11-24T14:56:29.906Z,6.13
2022-11-24T14:58:58.692Z,6.90
2022-11-24T15:01:28.520Z,2.50
2022-11-24T15:05:00.944Z,5.13
2022-11-24T15:07:29.701Z,6.65
2022-11-24T15:10:01.777Z,8.20
2022-11-24T15:12:38.657Z,3.63
2022-11-24T15:15:15.047Z,6.75
2022-11-24T15:17:56.789Z,10.23
2022-11-24T15:20:42.161Z,11.65
2022-11-24T15:23:29.550Z,8.82
2022-11-24T15:26:17.076Z,8.15
2022-11-24T15:28:46.672Z,8.20
2022-11-24T15:31:14.418Z,5.50
2022-11-24T15:33:42.306Z,6.57
2022-11-24T15:36:09.239Z,10.85
2022-11-24T15:38:36.128Z,10.93
2022-11-24T15:41:16.614Z,7.68
2022-11-24T15:43:43.614Z,8.40
2022-11-24T15:46:10.596Z,7.47
2022-11-24T15:48:37.506Z,7.05
2022-11-24T15:51:12.853Z,7.40
2022-11-24T15:53:44.637Z,5.00
2022-11-24T15:56:38.806Z,16.88
2022-11-24T15:59:05.920Z,5.95
2022-11-24T16:01:34.041Z,12.38
2022-11-24T16:04:02.156Z,17.50
2022-11-24T16:06:29.042Z,18.50
2022-11-24T16:08:57.607Z,15.75
2022-11-24T16:11:24.904Z,14.73
2022-11-24T16:13:53.692Z,14.68
2022-11-24T16:16:23.015Z,12.38
2022-11-24T16:18:50.541Z,16.55
2022-11-24T16:21:17.476Z,34.65
2022-11-24T16:23:45.521Z,59.80
2022-11-24T16:26:12.773Z,49.63
2022-11-24T16:28:40.510Z,16.08
2022-11-24T16:31:07.547Z,10.73
2022-11-24T16:33:34.667Z,7.22
2022-11-24T16:36:01.564Z,8.68
2022-11-24T16:38:28.459Z,45.22
2022-11-24T16:40:58.473Z,46.95
2022-11-24T16:43:25.966Z,39.50
2022-11-24T16:46:09.256Z,32.55
2022-11-24T16:48:37.323Z,23.10
2022-11-24T16:51:11.184Z,22.13
2022-11-24T16:53:38.699Z,36.10
2022-11-24T16:56:06.583Z,23.77
2022-11-24T16:58:34.188Z,36.35
2022-11-24T17:01:10.370Z,14.50
2022-11-24T17:03:38.291Z,14.90
2022-11-24T17:06:07.762Z,13.43
2022-11-24T17:08:36.668Z,11.95
2022-11-24T17:11:16.676Z,12.70
2022-11-24T17:13:45.649Z,18.90
2022-11-24T17:16:16.132Z,20.25
2022-11-24T17:18:43.700Z,34.97
2022-11-24T17:21:18.199Z,29.67
2022-11-24T17:23:45.764Z,27.73
2022-11-24T17:26:15.608Z,24.30
2022-11-24T17:28:43.516Z,27.23
2022-11-24T17:31:23.362Z,44.55
2022-11-24T17:33:52.863Z,35.95
2022-11-24T17:36:20.218Z,22.75
2022-11-24T17:38:49.351Z,6.40
2022-11-24T17:41:20.291Z,7.25
2022-11-24T17:43:55.693Z,8.65
2022-11-24T17:46:24.297Z,6.15
2022-11-24T17:48:51.743Z,10.57
2022-11-24T17:51:21.427Z,8.75
2022-11-24T17:53:50.979Z,4.15
2022-11-24T17:56:25.456Z,11.98
2022-11-24T17:58:55.506Z,5.35
2022-11-24T18:01:23.098Z,12.65
2022-11-24T18:03:53.432Z,7.05
2022-11-24T18:06:24.026Z,11.13
2022-11-24T18:08:51.455Z,5.53
2022-11-24T18:11:24.615Z,3.50
2022-11-24T18:13:59.792Z,15.60
2022-11-24T18:16:29.735Z,7.07
2022-11-24T18:19:14.628Z,16.42
2022-11-24T18:21:44.597Z,9.95
2022-11-24T18:24:12.496Z,4.10
2022-11-24T18:26:40.454Z,8.85
2022-11-24T18:29:07.979Z,9.02
2022-11-24T18:31:36.128Z,15.60
2022-11-24T18:34:05.240Z,7.03
2022-11-24T18:36:33.007Z,7.50
2022-11-24T18:39:08.721Z,5.75
2022-11-24T18:41:36.070Z,8.98
2022-11-24T18:44:07.470Z,7.25
2022-11-24T18:46:35.005Z,16.30
2022-11-24T18:49:02.320Z,13.10
2022-11-24T18:51:29.921Z,4.03
2022-11-24T18:54:02.067Z,9.60
2022-11-24T18:56:29.094Z,6.88
2022-11-24T18:58:56.494Z,7.40
2022-11-24T19:01:27.663Z,5.10
2022-11-24T19:03:58.019Z,5.43
2022-11-24T19:06:32.847Z,7.28
2022-11-24T19:09:07.161Z,11.88
2022-11-24T19:11:37.511Z,4.90
2022-11-24T19:14:08.512Z,9.07
2022-11-24T19:16:35.864Z,5.15
2022-11-24T19:19:03.293Z,5.82
2022-11-24T19:21:37.129Z,8.95
2022-11-24T19:24:06.591Z,7.22
2022-11-24T19:26:37.293Z,6.82
2022-11-24T19:29:05.523Z,9.13
2022-11-24T19:31:33.587Z,4.32
2022-11-24T19:34:02.735Z,10.07
2022-11-24T19:36:30.067Z,21.25
2022-11-24T19:38:58.547Z,20.63
2022-11-24T19:41:29.411Z,29.83
2022-11-24T19:43:57.822Z,29.67
2022-11-24T19:46:27.522Z,31.88
2022-11-24T19:48:56.987Z,29.05
2022-11-24T19:51:27.848Z,29.80
2022-11-24T19:53:55.209Z,36.88
2022-11-24T19:56:24.882Z,38.40
2022-11-24T19:58:53.793Z,34.90
2022-11-24T20:01:37.410Z,33.85
2022-11-24T20:04:09.227Z,34.92
2022-11-24T20:06:39.602Z,31.30
2022-11-24T20:09:10.059Z,32.20
2022-11-24T20:11:37.604Z,34.58
2022-11-24T20:14:05.661Z,35.88
2022-11-24T20:16:34.580Z,25.63
2022-11-24T20:19:12.309Z,21.60
2022-11-24T20:21:41.609Z,19.45
2022-11-24T20:24:13.518Z,21.20
2022-11-24T20:26:50.198Z,15.95
2022-11-24T20:29:18.405Z,19.42
2022-11-24T20:31:49.536Z,13.75
2022-11-24T20:34:16.885Z,23.35
2022-11-24T20:36:45.828Z,15.48
2022-11-24T20:39:16.204Z,12.57
2022-11-24T20:41:43.169Z,22.55
2022-11-24T20:44:15.121Z,24.67
2022-11-24T20:46:44.833Z,18.75
2022-11-24T20:49:16.534Z,17.83
2022-11-24T20:51:46.834Z,19.08
2022-11-24T20:54:16.705Z,20.92
2022-11-24T20:56:46.251Z,21.48
2022-11-24T20:59:21.433Z,20.40
2022-11-24T21:01:50.008Z,20.67
2022-11-24T21:04:21.357Z,19.08
2022-11-24T21:06:48.576Z,16.93
2022-11-24T21:09:16.169Z,16.10
2022-11-24T21:11:44.011Z,19.25
2022-11-24T21:14:11.668Z,54.15
2022-11-24T21:16:42.093Z,46.50
2022-11-24T21:19:17.830Z,32.72
2022-11-24T21:21:47.433Z,36.33
2022-11-24T21:24:16.940Z,32.25
2022-11-24T21:26:47.689Z,27.10
2022-11-24T21:29:18.792Z,23.20
2022-11-24T21:31:45.799Z,18.70
2022-11-24T21:34:16.400Z,15.20
2022-11-24T21:36:44.994Z,18.98
2022-11-24T21:39:16.140Z,12.02
2022-11-24T21:41:43.750Z,13.70
2022-11-24T21:44:14.916Z,14.43
2022-11-24T21:46:48.117Z,13.57
2022-11-24T21:49:17.887Z,15.75
2022-11-24T21:51:45.242Z,15.82
2022-11-24T21:54:12.579Z,16.17
2022-11-24T21:56:39.876Z,15.98
2022-11-24T21:59:07.226Z,20.65
2022-11-24T22:01:34.753Z,17.40
2022-11-24T22:04:01.752Z,15.00
2022-11-24T22:06:28.703Z,21.65
2022-11-24T22:08:58.884Z,30.55
2022-11-24T22:11:26.394Z,14.30
2022-11-24T22:13:53.864Z,15.60
2022-11-24T22:16:23.761Z,15.02
2022-11-24T22:21:35.665Z,10.85
2022-11-24T22:24:05.913Z,15.52
2022-11-24T22:26:33.351Z,10.07
2022-11-24T22:29:07.412Z,6.30
2022-11-24T22:31:36.557Z,7.60
2022-11-24T22:34:03.948Z,9.73
2022-11-24T22:36:31.328Z,7.57
2022-11-24T22:39:03.826Z,10.18
2022-11-24T22:41:33.724Z,10.40
2022-11-24T22:44:01.008Z,10.80
2022-11-24T22:46:30.365Z,8.48
2022-11-24T22:49:00.281Z,9.85
2022-11-24T22:51:33.701Z,12.32
2022-11-24T22:54:03.797Z,9.25
2022-11-24T22:56:34.569Z,8.30
2022-11-24T22:59:02.950Z,11.32
2022-11-24T23:01:31.865Z,12.90
2022-11-24T23:03:58.932Z,16.23
2022-11-24T23:06:28.774Z,11.68
2022-11-24T23:08:57.974Z,12.30
2022-11-24T23:11:37.797Z,13.63
2022-11-24T23:14:08.140Z,9.77
2022-11-24T23:16:35.618Z,15.02
2022-11-24T23:19:03.309Z,18.42
2022-11-24T23:21:33.368Z,13.60
2022-11-24T23:24:02.938Z,13.65
2022-11-24T23:26:39.672Z,17.17
2022-11-24T23:29:07.690Z,16.25
2022-11-24T23:31:35.469Z,16.50
2022-11-24T23:34:04.225Z,15.30
2022-11-24T23:36:32.180Z,17.80
2022-11-24T23:39:08.803Z,14.35
2022-11-24T23:41:35.971Z,12.85
2022-11-24T23:44:03.572Z,14.02
2022-11-24T23:46:31.068Z,10.98
2022-11-24T23:48:58.421Z,13.07
2022-11-24T23:51:28.585Z,11.90
2022-11-24T23:53:56.400Z,12.07
2022-11-24T23:56:32.426Z,13.50
2022-11-24T23:59:04.112Z,9.88
